sensor_id;sensor_type;location;lat;lon;timestamp;P1;durP1;ratioP1;P2;durP2;ratioP2
46158;SDS011;31888;44.512;26.104;2023-04-03T00:00:32;23.60;;;16.83;;
46158;SDS011;31888;44.512;26.104;2023-04-03T00:02:57;25.75;;;18.35;;
46158;SDS011;31888;44.512;26.104;2023-04-03T00:05:23;24.27;;;17.98;;
46158;SDS011;31888;44.512;26.104;2023-04-03T00:07:48;25.63;;;18.27;;
46158;SDS011;31888;44.512;26.104;2023-04-03T00:10:13;25.58;;;17.08;;
46158;SDS011;31888;44.512;26.104;2023-04-03T00:12:38;24.58;;;17.77;;
46158;SDS011;31888;44.512;26.104;2023-04-03T00:15:05;24.75;;;17.63;;
46158;SDS011;31888;44.512;26.104;2023-04-03T00:17:32;25.60;;;17.50;;
46158;SDS011;31888;44.512;26.104;2023-04-03T00:19:56;24.23;;;17.70;;
46158;SDS011;31888;44.512;26.104;2023-04-03T00:22:21;27.10;;;17.42;;
46158;SDS011;31888;44.512;26.104;2023-04-03T00:24:46;27.23;;;18.35;;
46158;SDS011;31888;44.512;26.104;2023-04-03T00:27:10;25.27;;;17.67;;
46158;SDS011;31888;44.512;26.104;2023-04-03T00:29:35;25.15;;;17.60;;
46158;SDS011;31888;44.512;26.104;2023-04-03T00:32:00;27.42;;;17.73;;
46158;SDS011;31888;44.512;26.104;2023-04-03T00:34:26;27.40;;;18.45;;
46158;SDS011;31888;44.512;26.104;2023-04-03T00:36:50;29.08;;;18.38;;
46158;SDS011;31888;44.512;26.104;2023-04-03T00:39:15;26.98;;;16.70;;
46158;SDS011;31888;44.512;26.104;2023-04-03T00:41:40;25.48;;;18.02;;
46158;SDS011;31888;44.512;26.104;2023-04-03T00:44:18;25.60;;;18.05;;
46158;SDS011;31888;44.512;26.104;2023-04-03T00:47:07;25.55;;;16.70;;
46158;SDS011;31888;44.512;26.104;2023-04-03T00:49:36;28.45;;;18.15;;
46158;SDS011;31888;44.512;26.104;2023-04-03T00:52:02;27.52;;;18.80;;
46158;SDS011;31888;44.512;26.104;2023-04-03T00:54:29;26.63;;;17.70;;
46158;SDS011;31888;44.512;26.104;2023-04-03T00:56:54;28.45;;;17.55;;
46158;SDS011;31888;44.512;26.104;2023-04-03T00:59:22;24.63;;;17.95;;
46158;SDS011;31888;44.512;26.104;2023-04-03T01:01:49;26.38;;;17.20;;
46158;SDS011;31888;44.512;26.104;2023-04-03T01:04:25;24.65;;;17.48;;
46158;SDS011;31888;44.512;26.104;2023-04-03T01:06:53;27.95;;;17.42;;
46158;SDS011;31888;44.512;26.104;2023-04-03T01:09:20;25.00;;;17.95;;
46158;SDS011;31888;44.512;26.104;2023-04-03T01:11:45;30.10;;;18.33;;
46158;SDS011;31888;44.512;26.104;2023-04-03T01:14:10;28.20;;;17.38;;
46158;SDS011;31888;44.512;26.104;2023-04-03T01:16:35;34.75;;;20.27;;
46158;SDS011;31888;44.512;26.104;2023-04-03T01:18:59;28.08;;;18.67;;
46158;SDS011;31888;44.512;26.104;2023-04-03T01:24:34;30.67;;;20.05;;
46158;SDS011;31888;44.512;26.104;2023-04-03T01:27:05;33.65;;;19.77;;
46158;SDS011;31888;44.512;26.104;2023-04-03T01:29:31;30.15;;;19.70;;
46158;SDS011;31888;44.512;26.104;2023-04-03T01:31:58;33.20;;;21.65;;
46158;SDS011;31888;44.512;26.104;2023-04-03T01:34:24;35.10;;;22.42;;
46158;SDS011;31888;44.512;26.104;2023-04-03T01:36:50;31.85;;;21.20;;
46158;SDS011;31888;44.512;26.104;2023-04-03T01:39:16;28.95;;;20.45;;
46158;SDS011;31888;44.512;26.104;2023-04-03T01:41:41;26.95;;;18.30;;
46158;SDS011;31888;44.512;26.104;2023-04-03T01:44:11;29.15;;;19.88;;
46158;SDS011;31888;44.512;26.104;2023-04-03T01:46:36;28.02;;;17.65;;
46158;SDS011;31888;44.512;26.104;2023-04-03T01:49:03;25.63;;;17.70;;
46158;SDS011;31888;44.512;26.104;2023-04-03T01:51:28;24.77;;;16.30;;
46158;SDS011;31888;44.512;26.104;2023-04-03T01:53:52;24.77;;;16.52;;
46158;SDS011;31888;44.512;26.104;2023-04-03T01:56:17;22.15;;;15.65;;
46158;SDS011;31888;44.512;26.104;2023-04-03T01:58:43;27.55;;;17.65;;
46158;SDS011;31888;44.512;26.104;2023-04-03T02:01:07;25.60;;;17.85;;
46158;SDS011;31888;44.512;26.104;2023-04-03T02:03:32;26.45;;;17.88;;
46158;SDS011;31888;44.512;26.104;2023-04-03T02:05:58;28.42;;;18.70;;
46158;SDS011;31888;44.512;26.104;2023-04-03T02:08:23;25.70;;;17.13;;
46158;SDS011;31888;44.512;26.104;2023-04-03T02:10:48;27.83;;;17.92;;
46158;SDS011;31888;44.512;26.104;2023-04-03T02:13:12;26.98;;;18.65;;
46158;SDS011;31888;44.512;26.104;2023-04-03T02:15:37;28.83;;;18.58;;
46158;SDS011;31888;44.512;26.104;2023-04-03T02:18:02;27.25;;;17.48;;
46158;SDS011;31888;44.512;26.104;2023-04-03T02:20:29;25.02;;;17.27;;
46158;SDS011;31888;44.512;26.104;2023-04-03T02:22:55;33.22;;;20.92;;
46158;SDS011;31888;44.512;26.104;2023-04-03T02:25:20;30.75;;;19.88;;
46158;SDS011;31888;44.512;26.104;2023-04-03T02:27:45;25.70;;;16.92;;
46158;SDS011;31888;44.512;26.104;2023-04-03T02:30:10;22.42;;;15.45;;
46158;SDS011;31888;44.512;26.104;2023-04-03T02:32:37;27.70;;;17.35;;
46158;SDS011;31888;44.512;26.104;2023-04-03T02:35:03;28.77;;;19.00;;
46158;SDS011;31888;44.512;26.104;2023-04-03T02:37:29;31.85;;;20.35;;
46158;SDS011;31888;44.512;26.104;2023-04-03T02:39:55;35.35;;;22.88;;
46158;SDS011;31888;44.512;26.104;2023-04-03T02:42:20;33.63;;;20.27;;
46158;SDS011;31888;44.512;26.104;2023-04-03T02:44:46;32.20;;;18.85;;
46158;SDS011;31888;44.512;26.104;2023-04-03T02:47:11;33.35;;;20.92;;
46158;SDS011;31888;44.512;26.104;2023-04-03T02:49:35;37.88;;;22.83;;
46158;SDS011;31888;44.512;26.104;2023-04-03T02:52:00;37.33;;;22.58;;
46158;SDS011;31888;44.512;26.104;2023-04-03T02:54:25;37.95;;;23.58;;
46158;SDS011;31888;44.512;26.104;2023-04-03T02:56:54;33.80;;;20.95;;
46158;SDS011;31888;44.512;26.104;2023-04-03T02:59:19;35.35;;;21.65;;
46158;SDS011;31888;44.512;26.104;2023-04-03T03:01:44;36.58;;;20.55;;
46158;SDS011;31888;44.512;26.104;2023-04-03T03:04:09;35.85;;;20.17;;
46158;SDS011;31888;44.512;26.104;2023-04-03T03:06:33;32.47;;;19.90;;
46158;SDS011;31888;44.512;26.104;2023-04-03T03:08:58;37.25;;;20.85;;
46158;SDS011;31888;44.512;26.104;2023-04-03T03:11:23;34.38;;;19.73;;
46158;SDS011;31888;44.512;26.104;2023-04-03T03:13:49;38.50;;;21.00;;
46158;SDS011;31888;44.512;26.104;2023-04-03T03:16:13;38.28;;;21.65;;
46158;SDS011;31888;44.512;26.104;2023-04-03T03:18:38;38.38;;;21.52;;
46158;SDS011;31888;44.512;26.104;2023-04-03T03:21:03;35.72;;;20.42;;
46158;SDS011;31888;44.512;26.104;2023-04-03T03:23:30;35.00;;;19.83;;
46158;SDS011;31888;44.512;26.104;2023-04-03T03:25:55;40.42;;;21.90;;
46158;SDS011;31888;44.512;26.104;2023-04-03T03:28:21;36.72;;;20.30;;
46158;SDS011;31888;44.512;26.104;2023-04-03T03:30:48;35.25;;;21.90;;
46158;SDS011;31888;44.512;26.104;2023-04-03T03:33:13;39.50;;;21.05;;
46158;SDS011;31888;44.512;26.104;2023-04-03T03:35:39;36.45;;;21.50;;
46158;SDS011;31888;44.512;26.104;2023-04-03T03:38:04;37.63;;;20.85;;
46158;SDS011;31888;44.512;26.104;2023-04-03T03:40:29;34.22;;;20.15;;
46158;SDS011;31888;44.512;26.104;2023-04-03T03:42:53;38.03;;;20.88;;
46158;SDS011;31888;44.512;26.104;2023-04-03T03:45:18;42.42;;;22.15;;
46158;SDS011;31888;44.512;26.104;2023-04-03T03:47:44;37.65;;;20.77;;
46158;SDS011;31888;44.512;26.104;2023-04-03T03:50:09;38.20;;;21.58;;
46158;SDS011;31888;44.512;26.104;2023-04-03T03:52:37;35.90;;;21.33;;
46158;SDS011;31888;44.512;26.104;2023-04-03T03:55:02;40.72;;;21.73;;
46158;SDS011;31888;44.512;26.104;2023-04-03T03:57:30;41.88;;;22.85;;
46158;SDS011;31888;44.512;26.104;2023-04-03T03:59:55;38.13;;;20.83;;
46158;SDS011;31888;44.512;26.104;2023-04-03T04:02:21;40.50;;;21.15;;
46158;SDS011;31888;44.512;26.104;2023-04-03T04:04:49;35.53;;;21.85;;
46158;SDS011;31888;44.512;26.104;2023-04-03T04:07:17;34.83;;;20.17;;
46158;SDS011;31888;44.512;26.104;2023-04-03T04:09:42;34.95;;;21.17;;
46158;SDS011;31888;44.512;26.104;2023-04-03T04:12:06;36.70;;;22.17;;
46158;SDS011;31888;44.512;26.104;2023-04-03T04:14:35;39.05;;;21.58;;
46158;SDS011;31888;44.512;26.104;2023-04-03T04:17:02;37.83;;;21.77;;
46158;SDS011;31888;44.512;26.104;2023-04-03T04:19:28;37.60;;;21.90;;
46158;SDS011;31888;44.512;26.104;2023-04-03T04:21:54;37.05;;;21.73;;
46158;SDS011;31888;44.512;26.104;2023-04-03T04:24:19;44.70;;;25.02;;
46158;SDS011;31888;44.512;26.104;2023-04-03T04:26:48;39.38;;;21.85;;
46158;SDS011;31888;44.512;26.104;2023-04-03T04:29:14;40.28;;;23.70;;
46158;SDS011;31888;44.512;26.104;2023-04-03T04:31:49;40.35;;;23.45;;
46158;SDS011;31888;44.512;26.104;2023-04-03T04:34:16;37.08;;;21.58;;
46158;SDS011;31888;44.512;26.104;2023-04-03T04:36:41;38.88;;;22.92;;
46158;SDS011;31888;44.512;26.104;2023-04-03T04:39:08;44.17;;;24.48;;
46158;SDS011;31888;44.512;26.104;2023-04-03T04:41:36;42.00;;;25.08;;
46158;SDS011;31888;44.512;26.104;2023-04-03T04:44:01;44.28;;;24.80;;
46158;SDS011;31888;44.512;26.104;2023-04-03T04:46:27;41.90;;;24.52;;
46158;SDS011;31888;44.512;26.104;2023-04-03T04:48:54;44.58;;;25.27;;
46158;SDS011;31888;44.512;26.104;2023-04-03T04:51:21;44.05;;;25.02;;
46158;SDS011;31888;44.512;26.104;2023-04-03T04:53:46;47.33;;;27.67;;
46158;SDS011;31888;44.512;26.104;2023-04-03T04:56:14;48.55;;;27.27;;
46158;SDS011;31888;44.512;26.104;2023-04-03T04:58:39;49.67;;;27.50;;
46158;SDS011;31888;44.512;26.104;2023-04-03T05:01:04;51.35;;;28.20;;
46158;SDS011;31888;44.512;26.104;2023-04-03T05:03:34;54.22;;;28.98;;
46158;SDS011;31888;44.512;26.104;2023-04-03T05:06:00;52.67;;;29.98;;
46158;SDS011;31888;44.512;26.104;2023-04-03T05:08:27;51.83;;;30.25;;
46158;SDS011;31888;44.512;26.104;2023-04-03T05:10:52;56.42;;;30.33;;
46158;SDS011;31888;44.512;26.104;2023-04-03T05:13:21;56.65;;;30.60;;
46158;SDS011;31888;44.512;26.104;2023-04-03T05:15:46;53.30;;;32.50;;
46158;SDS011;31888;44.512;26.104;2023-04-03T05:18:11;56.15;;;31.77;;
46158;SDS011;31888;44.512;26.104;2023-04-03T05:20:35;57.25;;;31.50;;
46158;SDS011;31888;44.512;26.104;2023-04-03T05:23:00;52.33;;;28.35;;
46158;SDS011;31888;44.512;26.104;2023-04-03T05:25:28;39.97;;;25.13;;
46158;SDS011;31888;44.512;26.104;2023-04-03T05:27:53;36.83;;;22.80;;
46158;SDS011;31888;44.512;26.104;2023-04-03T05:30:20;40.22;;;22.92;;
46158;SDS011;31888;44.512;26.104;2023-04-03T05:32:45;35.60;;;20.33;;
46158;SDS011;31888;44.512;26.104;2023-04-03T05:35:14;29.33;;;18.48;;
46158;SDS011;31888;44.512;26.104;2023-04-03T05:37:41;28.85;;;16.75;;
46158;SDS011;31888;44.512;26.104;2023-04-03T05:40:07;30.85;;;17.45;;
46158;SDS011;31888;44.512;26.104;2023-04-03T05:42:36;25.08;;;15.85;;
46158;SDS011;31888;44.512;26.104;2023-04-03T05:45:00;25.27;;;15.50;;
46158;SDS011;31888;44.512;26.104;2023-04-03T05:47:27;26.33;;;16.58;;
46158;SDS011;31888;44.512;26.104;2023-04-03T05:49:54;25.73;;;17.73;;
46158;SDS011;31888;44.512;26.104;2023-04-03T05:52:20;29.85;;;16.33;;
46158;SDS011;31888;44.512;26.104;2023-04-03T05:54:47;23.65;;;14.50;;
46158;SDS011;31888;44.512;26.104;2023-04-03T05:57:18;20.08;;;14.30;;
46158;SDS011;31888;44.512;26.104;2023-04-03T05:59:43;21.90;;;14.75;;
46158;SDS011;31888;44.512;26.104;2023-04-03T06:02:10;18.02;;;10.70;;
46158;SDS011;31888;44.512;26.104;2023-04-03T06:04:37;20.13;;;10.50;;
46158;SDS011;31888;44.512;26.104;2023-04-03T06:07:01;13.95;;;9.15;;
46158;SDS011;31888;44.512;26.104;2023-04-03T06:09:26;14.27;;;9.75;;
46158;SDS011;31888;44.512;26.104;2023-04-03T06:11:54;15.52;;;9.95;;
46158;SDS011;31888;44.512;26.104;2023-04-03T06:14:21;13.10;;;9.55;;
46158;SDS011;31888;44.512;26.104;2023-04-03T06:16:46;13.98;;;9.32;;
46158;SDS011;31888;44.512;26.104;2023-04-03T06:19:11;16.25;;;9.35;;
46158;SDS011;31888;44.512;26.104;2023-04-03T06:21:42;13.48;;;8.48;;
46158;SDS011;31888;44.512;26.104;2023-04-03T06:24:07;14.35;;;9.35;;
46158;SDS011;31888;44.512;26.104;2023-04-03T06:26:33;15.70;;;10.32;;
46158;SDS011;31888;44.512;26.104;2023-04-03T06:28:58;17.83;;;8.50;;
46158;SDS011;31888;44.512;26.104;2023-04-03T06:31:23;17.08;;;10.35;;
46158;SDS011;31888;44.512;26.104;2023-04-03T06:33:48;14.73;;;9.32;;
46158;SDS011;31888;44.512;26.104;2023-04-03T06:36:13;16.70;;;10.02;;
46158;SDS011;31888;44.512;26.104;2023-04-03T06:38:43;13.55;;;8.48;;
46158;SDS011;31888;44.512;26.104;2023-04-03T06:41:08;18.67;;;10.00;;
46158;SDS011;31888;44.512;26.104;2023-04-03T06:43:32;15.55;;;9.73;;
46158;SDS011;31888;44.512;26.104;2023-04-03T06:45:57;13.35;;;8.85;;
46158;SDS011;31888;44.512;26.104;2023-04-03T06:48:22;16.50;;;9.15;;
46158;SDS011;31888;44.512;26.104;2023-04-03T06:50:46;15.85;;;8.98;;
46158;SDS011;31888;44.512;26.104;2023-04-03T06:53:11;13.18;;;9.10;;
46158;SDS011;31888;44.512;26.104;2023-04-03T06:55:37;13.68;;;8.38;;
46158;SDS011;31888;44.512;26.104;2023-04-03T06:58:04;14.73;;;8.68;;
46158;SDS011;31888;44.512;26.104;2023-04-03T07:00:29;15.43;;;9.10;;
46158;SDS011;31888;44.512;26.104;2023-04-03T07:02:54;15.05;;;9.98;;
46158;SDS011;31888;44.512;26.104;2023-04-03T07:05:21;15.73;;;9.88;;
46158;SDS011;31888;44.512;26.104;2023-04-03T07:07:46;14.15;;;8.55;;
46158;SDS011;31888;44.512;26.104;2023-04-03T07:10:12;17.33;;;10.60;;
46158;SDS011;31888;44.512;26.104;2023-04-03T07:12:38;14.48;;;9.35;;
46158;SDS011;31888;44.512;26.104;2023-04-03T07:15:04;15.15;;;9.95;;
46158;SDS011;31888;44.512;26.104;2023-04-03T07:17:33;19.25;;;10.05;;
46158;SDS011;31888;44.512;26.104;2023-04-03T07:19:58;15.38;;;10.00;;
46158;SDS011;31888;44.512;26.104;2023-04-03T07:22:26;17.25;;;10.43;;
46158;SDS011;31888;44.512;26.104;2023-04-03T07:24:50;15.57;;;10.20;;
46158;SDS011;31888;44.512;26.104;2023-04-03T07:27:15;19.35;;;10.82;;
46158;SDS011;31888;44.512;26.104;2023-04-03T07:29:44;17.45;;;10.05;;
46158;SDS011;31888;44.512;26.104;2023-04-03T07:32:11;18.73;;;10.73;;
46158;SDS011;31888;44.512;26.104;2023-04-03T07:34:35;17.58;;;9.48;;
46158;SDS011;31888;44.512;26.104;2023-04-03T07:37:01;15.18;;;9.43;;
46158;SDS011;31888;44.512;26.104;2023-04-03T07:39:27;18.58;;;10.50;;
46158;SDS011;31888;44.512;26.104;2023-04-03T07:41:51;16.48;;;10.07;;
46158;SDS011;31888;44.512;26.104;2023-04-03T07:44:18;16.38;;;10.68;;
46158;SDS011;31888;44.512;26.104;2023-04-03T07:46:47;14.48;;;9.68;;
46158;SDS011;31888;44.512;26.104;2023-04-03T07:49:13;15.85;;;9.10;;
46158;SDS011;31888;44.512;26.104;2023-04-03T07:51:39;15.13;;;9.43;;
46158;SDS011;31888;44.512;26.104;2023-04-03T07:54:04;16.10;;;10.57;;
46158;SDS011;31888;44.512;26.104;2023-04-03T07:56:29;17.40;;;9.68;;
46158;SDS011;31888;44.512;26.104;2023-04-03T07:58:54;16.98;;;10.15;;
46158;SDS011;31888;44.512;26.104;2023-04-03T08:01:19;14.95;;;10.02;;
46158;SDS011;31888;44.512;26.104;2023-04-03T08:03:46;17.10;;;10.35;;
46158;SDS011;31888;44.512;26.104;2023-04-03T08:06:12;16.63;;;10.20;;
46158;SDS011;31888;44.512;26.104;2023-04-03T08:08:41;16.27;;;9.32;;
46158;SDS011;31888;44.512;26.104;2023-04-03T08:11:06;15.85;;;10.57;;
46158;SDS011;31888;44.512;26.104;2023-04-03T08:13:31;14.25;;;9.75;;
46158;SDS011;31888;44.512;26.104;2023-04-03T08:15:57;15.25;;;9.75;;
46158;SDS011;31888;44.512;26.104;2023-04-03T08:18:30;18.48;;;10.38;;
46158;SDS011;31888;44.512;26.104;2023-04-03T08:20:57;19.25;;;10.02;;
46158;SDS011;31888;44.512;26.104;2023-04-03T08:23:22;20.02;;;9.93;;
46158;SDS011;31888;44.512;26.104;2023-04-03T08:25:47;16.98;;;9.27;;
46158;SDS011;31888;44.512;26.104;2023-04-03T08:28:14;18.67;;;9.77;;
46158;SDS011;31888;44.512;26.104;2023-04-03T08:30:40;17.38;;;9.85;;
46158;SDS011;31888;44.512;26.104;2023-04-03T08:33:08;15.18;;;10.02;;
46158;SDS011;31888;44.512;26.104;2023-04-03T08:35:37;15.63;;;9.95;;
46158;SDS011;31888;44.512;26.104;2023-04-03T08:38:06;15.07;;;9.98;;
46158;SDS011;31888;44.512;26.104;2023-04-03T08:40:31;19.25;;;10.13;;
46158;SDS011;31888;44.512;26.104;2023-04-03T08:42:59;15.90;;;8.73;;
46158;SDS011;31888;44.512;26.104;2023-04-03T08:45:33;19.80;;;11.32;;
46158;SDS011;31888;44.512;26.104;2023-04-03T08:48:08;17.35;;;10.85;;
46158;SDS011;31888;44.512;26.104;2023-04-03T08:50:39;16.75;;;10.82;;
46158;SDS011;31888;44.512;26.104;2023-04-03T08:53:10;18.73;;;11.77;;
46158;SDS011;31888;44.512;26.104;2023-04-03T08:55:39;17.80;;;10.00;;
46158;SDS011;31888;44.512;26.104;2023-04-03T08:58:09;17.23;;;10.88;;
46158;SDS011;31888;44.512;26.104;2023-04-03T09:00:41;23.58;;;11.45;;
46158;SDS011;31888;44.512;26.104;2023-04-03T09:03:11;18.90;;;11.60;;
46158;SDS011;31888;44.512;26.104;2023-04-03T09:05:39;20.73;;;12.02;;
46158;SDS011;31888;44.512;26.104;2023-04-03T09:08:16;18.85;;;10.30;;
46158;SDS011;31888;44.512;26.104;2023-04-03T09:10:51;21.67;;;13.23;;
46158;SDS011;31888;44.512;26.104;2023-04-03T09:13:24;18.55;;;12.93;;
46158;SDS011;31888;44.512;26.104;2023-04-03T09:15:55;22.17;;;14.43;;
46158;SDS011;31888;44.512;26.104;2023-04-03T09:18:23;24.67;;;14.18;;
46158;SDS011;31888;44.512;26.104;2023-04-03T09:20:54;22.42;;;14.57;;
46158;SDS011;31888;44.512;26.104;2023-04-03T09:23:27;21.08;;;14.05;;
46158;SDS011;31888;44.512;26.104;2023-04-03T09:25:57;23.70;;;13.98;;
46158;SDS011;31888;44.512;26.104;2023-04-03T09:28:30;22.08;;;12.18;;
46158;SDS011;31888;44.512;26.104;2023-04-03T09:31:16;20.60;;;12.57;;
46158;SDS011;31888;44.512;26.104;2023-04-03T09:33:45;21.45;;;13.18;;
46158;SDS011;31888;44.512;26.104;2023-04-03T09:36:11;21.75;;;13.55;;
46158;SDS011;31888;44.512;26.104;2023-04-03T09:38:38;19.85;;;12.90;;
46158;SDS011;31888;44.512;26.104;2023-04-03T09:41:04;19.52;;;13.68;;
46158;SDS011;31888;44.512;26.104;2023-04-03T09:43:36;20.48;;;13.10;;
46158;SDS011;31888;44.512;26.104;2023-04-03T09:46:21;17.67;;;11.80;;
46158;SDS011;31888;44.512;26.104;2023-04-03T09:48:57;23.25;;;11.70;;
46158;SDS011;31888;44.512;26.104;2023-04-03T09:51:31;22.30;;;11.48;;
46158;SDS011;31888;44.512;26.104;2023-04-03T09:54:00;15.90;;;10.18;;
46158;SDS011;31888;44.512;26.104;2023-04-03T09:56:49;19.33;;;11.18;;
46158;SDS011;31888;44.512;26.104;2023-04-03T09:59:16;22.50;;;11.00;;
46158;SDS011;31888;44.512;26.104;2023-04-03T10:01:55;17.88;;;10.93;;
46158;SDS011;31888;44.512;26.104;2023-04-03T10:04:22;18.70;;;11.15;;
46158;SDS011;31888;44.512;26.104;2023-04-03T10:06:47;18.27;;;9.88;;
46158;SDS011;31888;44.512;26.104;2023-04-03T10:09:20;16.42;;;9.02;;
46158;SDS011;31888;44.512;26.104;2023-04-03T10:11:59;17.25;;;10.38;;
46158;SDS011;31888;44.512;26.104;2023-04-03T10:14:33;17.95;;;9.75;;
46158;SDS011;31888;44.512;26.104;2023-04-03T10:17:03;15.43;;;10.25;;
46158;SDS011;31888;44.512;26.104;2023-04-03T10:19:43;18.13;;;9.05;;
46158;SDS011;31888;44.512;26.104;2023-04-03T10:25:04;21.25;;;9.63;;
46158;SDS011;31888;44.512;26.104;2023-04-03T10:27:53;18.30;;;10.35;;
46158;SDS011;31888;44.512;26.104;2023-04-03T10:30:28;17.98;;;10.05;;
46158;SDS011;31888;44.512;26.104;2023-04-03T10:33:01;16.42;;;9.95;;
46158;SDS011;31888;44.512;26.104;2023-04-03T10:35:44;16.17;;;10.25;;
46158;SDS011;31888;44.512;26.104;2023-04-03T10:38:22;17.25;;;11.05;;
46158;SDS011;31888;44.512;26.104;2023-04-03T10:40:57;18.50;;;10.63;;
46158;SDS011;31888;44.512;26.104;2023-04-03T10:43:32;22.35;;;10.52;;
46158;SDS011;31888;44.512;26.104;2023-04-03T10:46:00;18.25;;;9.75;;
46158;SDS011;31888;44.512;26.104;2023-04-03T10:48:32;19.63;;;12.18;;
46158;SDS011;31888;44.512;26.104;2023-04-03T10:51:06;15.85;;;10.70;;
46158;SDS011;31888;44.512;26.104;2023-04-03T10:53:41;16.50;;;10.57;;
46158;SDS011;31888;44.512;26.104;2023-04-03T10:58:38;18.20;;;11.68;;
46158;SDS011;31888;44.512;26.104;2023-04-03T11:01:06;17.23;;;10.82;;
46158;SDS011;31888;44.512;26.104;2023-04-03T11:03:36;19.50;;;10.60;;
46158;SDS011;31888;44.512;26.104;2023-04-03T11:06:05;14.65;;;9.45;;
46158;SDS011;31888;44.512;26.104;2023-04-03T11:08:35;16.65;;;11.05;;
46158;SDS011;31888;44.512;26.104;2023-04-03T11:11:08;19.67;;;12.13;;
46158;SDS011;31888;44.512;26.104;2023-04-03T11:13:38;18.88;;;11.75;;
46158;SDS011;31888;44.512;26.104;2023-04-03T11:16:07;21.80;;;13.50;;
46158;SDS011;31888;44.512;26.104;2023-04-03T11:18:35;14.73;;;9.43;;
46158;SDS011;31888;44.512;26.104;2023-04-03T11:21:07;18.92;;;10.95;;
46158;SDS011;31888;44.512;26.104;2023-04-03T11:23:36;20.17;;;11.00;;
46158;SDS011;31888;44.512;26.104;2023-04-03T11:26:13;19.48;;;11.25;;
46158;SDS011;31888;44.512;26.104;2023-04-03T11:28:40;17.33;;;11.35;;
46158;SDS011;31888;44.512;26.104;2023-04-03T11:31:09;16.48;;;11.00;;
46158;SDS011;31888;44.512;26.104;2023-04-03T11:33:47;21.08;;;11.63;;
46158;SDS011;31888;44.512;26.104;2023-04-03T11:36:21;19.15;;;11.18;;
46158;SDS011;31888;44.512;26.104;2023-04-03T11:38:56;16.38;;;10.88;;
46158;SDS011;31888;44.512;26.104;2023-04-03T11:41:26;16.75;;;10.55;;
46158;SDS011;31888;44.512;26.104;2023-04-03T11:43:58;18.70;;;11.15;;
46158;SDS011;31888;44.512;26.104;2023-04-03T11:58:25;18.85;;;11.45;;
46158;SDS011;31888;44.512;26.104;2023-04-03T12:01:04;20.45;;;11.18;;
46158;SDS011;31888;44.512;26.104;2023-04-03T12:09:35;18.23;;;11.02;;
46158;SDS011;31888;44.512;26.104;2023-04-03T12:12:27;17.38;;;10.68;;
46158;SDS011;31888;44.512;26.104;2023-04-03T12:21:16;18.73;;;10.18;;
46158;SDS011;31888;44.512;26.104;2023-04-03T12:23:58;18.67;;;11.32;;
46158;SDS011;31888;44.512;26.104;2023-04-03T12:26:27;21.20;;;11.65;;
46158;SDS011;31888;44.512;26.104;2023-04-03T12:29:12;19.10;;;11.15;;
46158;SDS011;31888;44.512;26.104;2023-04-03T12:31:42;20.77;;;12.32;;
46158;SDS011;31888;44.512;26.104;2023-04-03T12:36:45;20.98;;;11.88;;
46158;SDS011;31888;44.512;26.104;2023-04-03T12:39:23;20.50;;;12.50;;
46158;SDS011;31888;44.512;26.104;2023-04-03T12:42:02;20.58;;;11.73;;
46158;SDS011;31888;44.512;26.104;2023-04-03T12:44:38;22.85;;;12.68;;
46158;SDS011;31888;44.512;26.104;2023-04-03T12:47:18;20.65;;;10.38;;
46158;SDS011;31888;44.512;26.104;2023-04-03T12:49:50;27.53;;;12.57;;
46158;SDS011;31888;44.512;26.104;2023-04-03T12:52:24;23.92;;;12.98;;
46158;SDS011;31888;44.512;26.104;2023-04-03T12:54:55;25.08;;;12.48;;
46158;SDS011;31888;44.512;26.104;2023-04-03T12:57:24;22.90;;;12.07;;
46158;SDS011;31888;44.512;26.104;2023-04-03T12:59:51;22.70;;;12.60;;
46158;SDS011;31888;44.512;26.104;2023-04-03T13:02:24;25.25;;;11.13;;
46158;SDS011;31888;44.512;26.104;2023-04-03T13:04:52;18.65;;;11.50;;
46158;SDS011;31888;44.512;26.104;2023-04-03T13:07:27;21.30;;;11.57;;
46158;SDS011;31888;44.512;26.104;2023-04-03T13:09:57;20.90;;;10.73;;
46158;SDS011;31888;44.512;26.104;2023-04-03T13:12:24;21.15;;;11.98;;
46158;SDS011;31888;44.512;26.104;2023-04-03T13:14:51;17.95;;;10.73;;
46158;SDS011;31888;44.512;26.104;2023-04-03T13:17:18;17.25;;;9.70;;
46158;SDS011;31888;44.512;26.104;2023-04-03T13:19:44;16.30;;;9.45;;
46158;SDS011;31888;44.512;26.104;2023-04-03T13:22:15;17.17;;;10.05;;
46158;SDS011;31888;44.512;26.104;2023-04-03T13:24:57;18.27;;;10.73;;
46158;SDS011;31888;44.512;26.104;2023-04-03T13:27:26;15.35;;;9.02;;
46158;SDS011;31888;44.512;26.104;2023-04-03T13:29:52;17.70;;;9.68;;
46158;SDS011;31888;44.512;26.104;2023-04-03T13:32:25;19.05;;;9.65;;
46158;SDS011;31888;44.512;26.104;2023-04-03T13:34:52;19.63;;;9.85;;
46158;SDS011;31888;44.512;26.104;2023-04-03T13:37:28;18.92;;;10.00;;
46158;SDS011;31888;44.512;26.104;2023-04-03T13:40:03;20.30;;;10.98;;
46158;SDS011;31888;44.512;26.104;2023-04-03T13:42:39;14.93;;;9.60;;
46158;SDS011;31888;44.512;26.104;2023-04-03T13:45:16;19.63;;;10.38;;
46158;SDS011;31888;44.512;26.104;2023-04-03T13:47:44;17.95;;;10.60;;
46158;SDS011;31888;44.512;26.104;2023-04-03T13:50:16;20.65;;;9.77;;
46158;SDS011;31888;44.512;26.104;2023-04-03T13:52:45;18.95;;;9.48;;
46158;SDS011;31888;44.512;26.104;2023-04-03T13:55:16;17.58;;;10.32;;
46158;SDS011;31888;44.512;26.104;2023-04-03T13:58:00;14.48;;;8.35;;
46158;SDS011;31888;44.512;26.104;2023-04-03T14:00:32;11.95;;;6.18;;
46158;SDS011;31888;44.512;26.104;2023-04-03T14:03:01;14.73;;;8.50;;
46158;SDS011;31888;44.512;26.104;2023-04-03T14:05:26;13.25;;;8.40;;
46158;SDS011;31888;44.512;26.104;2023-04-03T14:07:53;16.73;;;8.52;;
46158;SDS011;31888;44.512;26.104;2023-04-03T14:10:18;14.77;;;8.65;;
46158;SDS011;31888;44.512;26.104;2023-04-03T14:12:43;14.73;;;8.32;;
46158;SDS011;31888;44.512;26.104;2023-04-03T14:15:14;18.05;;;9.88;;
46158;SDS011;31888;44.512;26.104;2023-04-03T14:17:42;15.73;;;9.80;;
46158;SDS011;31888;44.512;26.104;2023-04-03T14:20:10;16.95;;;9.88;;
46158;SDS011;31888;44.512;26.104;2023-04-03T14:22:39;16.27;;;10.57;;
46158;SDS011;31888;44.512;26.104;2023-04-03T14:25:06;18.88;;;10.75;;
46158;SDS011;31888;44.512;26.104;2023-04-03T14:27:33;19.83;;;11.20;;
46158;SDS011;31888;44.512;26.104;2023-04-03T14:30:00;21.55;;;12.68;;
46158;SDS011;31888;44.512;26.104;2023-04-03T14:32:27;23.77;;;13.90;;
46158;SDS011;31888;44.512;26.104;2023-04-03T14:34:52;23.88;;;12.50;;
46158;SDS011;31888;44.512;26.104;2023-04-03T14:37:18;22.95;;;13.55;;
46158;SDS011;31888;44.512;26.104;2023-04-03T14:39:45;24.55;;;14.95;;
46158;SDS011;31888;44.512;26.104;2023-04-03T14:42:13;24.02;;;14.43;;
46158;SDS011;31888;44.512;26.104;2023-04-03T14:44:41;30.08;;;16.25;;
46158;SDS011;31888;44.512;26.104;2023-04-03T14:47:09;26.10;;;14.13;;
46158;SDS011;31888;44.512;26.104;2023-04-03T14:49:51;23.98;;;13.63;;
46158;SDS011;31888;44.512;26.104;2023-04-03T14:52:18;27.60;;;14.30;;